Time;durP1;ratioP1;P1;durP2;ratioP2;P2;SDS_P1;SDS_P2;PMS_P1;PMS_P2;Temp;Humidity;BMP_temperature;BMP_pressure;BME280_temperature;BME280_humidity;BME280_pressure;Samples;Min_cycle;Max_cycle;Signal;HPM_P1;HPM_P2
2021/03/29 00:00:10;;;;;;;104.93;51.75;;;230.70;1536.00;;;;;;5072298;28;20024;-65
2021/03/29 00:02:36;;;;;;;92.45;47.60;;;230.60;1510.40;;;;;;5072600;28;20037;-69
2021/03/29 00:05:03;;;;;;;90.22;46.60;;;230.60;1510.40;;;;;;5071754;28;20445;-68
2021/03/29 00:07:30;;;;;;;119.47;57.13;;;230.60;1484.80;;;;;;5082262;28;20027;-66
2021/03/29 00:09:57;;;;;;;103.03;49.63;;;230.60;1536.00;;;;;;5083628;28;20032;-66
2021/03/29 00:12:23;;;;;;;106.55;50.50;;;230.60;1536.00;;;;;;5061735;28;20373;-67
2021/03/29 00:14:51;;;;;;;97.68;50.33;;;230.60;1536.00;;;;;;5075191;28;20115;-67
2021/03/29 00:17:17;;;;;;;141.68;66.28;;;230.40;1536.00;;;;;;5075134;28;20032;-65
2021/03/29 00:19:44;;;;;;;157.52;77.53;;;230.40;1536.00;;;;;;5072614;28;20017;-66
2021/03/29 00:22:10;;;;;;;141.00;68.70;;;230.50;1536.00;;;;;;5076184;28;20056;-67
2021/03/29 00:24:37;;;;;;;101.15;50.28;;;230.50;1536.00;;;;;;5080236;28;20016;-65
2021/03/29 00:27:04;;;;;;;106.88;54.08;;;205.70;1536.00;;;;;;5086899;28;20399;-67
2021/03/29 00:29:30;;;;;;;102.80;52.58;;;205.70;1561.60;;;;;;5096671;28;20417;-66
2021/03/29 00:31:57;;;;;;;107.18;55.17;;;230.40;1536.00;;;;;;5080177;28;20028;-64
2021/03/29 00:34:24;;;;;;;99.47;50.60;;;205.60;1561.60;;;;;;5075986;28;20021;-67
2021/03/29 00:36:51;;;;;;;90.90;44.80;;;205.60;1587.20;;;;;;5080203;28;20028;-68
2021/03/29 00:39:18;;;;;;;84.82;45.10;;;205.60;1587.20;;;;;;5096165;28;20082;-66
2021/03/29 00:41:44;;;;;;;78.65;40.88;;;205.50;1587.20;;;;;;5096730;28;20020;-68
2021/03/29 00:44:11;;;;;;;78.40;40.08;;;205.50;1612.80;;;;;;5095752;28;20035;-66
2021/03/29 00:46:40;;;;;;;82.13;41.47;;;205.50;1612.80;;;;;;5096590;28;20016;-66
2021/03/29 00:49:06;;;;;;;80.15;41.25;;;205.40;1587.20;;;;;;5095753;28;20028;-63
2021/03/29 00:51:36;;;;;;;98.95;50.17;;;205.30;1612.80;;;;;;5093847;28;20031;-64
2021/03/29 00:54:04;;;;;;;90.57;48.10;;;205.20;1612.80;;;;;;5075299;28;20028;-67
2021/03/29 00:56:31;;;;;;;87.35;44.30;;;205.20;1587.20;;;;;;5075776;28;20461;-67
2021/03/29 00:58:58;;;;;;;88.60;45.92;;;205.20;1612.80;;;;;;5075482;28;20039;-68
2021/03/29 01:01:29;;;;;;;83.75;44.58;;;205.20;1612.80;;;;;;5075353;28;20028;-67
2021/03/29 01:04:00;;;;;;;93.22;47.05;;;205.10;1612.80;;;;;;5075872;28;20437;-66
2021/03/29 01:06:30;;;;;;;84.78;45.35;;;205.10;1612.80;;;;;;5075244;28;20082;-63
2021/03/29 01:09:04;;;;;;;86.15;42.50;;;205.10;1612.80;;;;;;5075857;28;20035;-65
2021/03/29 01:11:34;;;;;;;80.07;41.80;;;205.10;1612.80;;;;;;5075025;28;20377;-66
2021/03/29 01:14:09;;;;;;;83.82;42.67;;;205.10;1612.80;;;;;;5075279;28;20028;-62
2021/03/29 01:16:46;;;;;;;82.40;41.38;;;204.90;1638.40;;;;;;5085453;28;20020;-66
2021/03/29 01:19:26;;;;;;;72.82;39.22;;;204.80;1638.40;;;;;;5095701;28;20071;-66
2021/03/29 01:22:05;;;;;;;90.05;42.70;;;204.80;1638.40;;;;;;5095153;28;20048;-66
2021/03/29 01:24:43;;;;;;;81.68;42.58;;;204.90;1638.40;;;;;;5095577;28;20032;-63
2021/03/29 01:27:11;;;;;;;81.97;42.58;;;204.90;1664.00;;;;;;5095245;28;20016;-65
2021/03/29 01:29:38;;;;;;;75.25;41.10;;;204.80;1664.00;;;;;;5095415;28;20529;-66
2021/03/29 01:32:06;;;;;;;83.20;42.75;;;204.80;1638.40;;;;;;5095123;28;20034;-66
2021/03/29 01:34:37;;;;;;;80.07;41.35;;;204.80;1638.40;;;;;;5094929;28;20376;-65
2021/03/29 01:37:04;;;;;;;76.22;41.08;;;204.80;1638.40;;;;;;5094071;28;20012;-67
2021/03/29 01:39:31;;;;;;;73.47;38.45;;;204.80;1638.40;;;;;;5078535;28;20040;-66
2021/03/29 01:41:58;;;;;;;69.57;37.28;;;180.10;1638.40;;;;;;5075150;28;20051;-66
2021/03/29 01:44:25;;;;;;;63.15;34.08;;;180.00;1612.80;;;;;;5094097;28;20042;-63
2021/03/29 01:46:52;;;;;;;75.72;33.92;;;180.10;1612.80;;;;;;5095486;28;20039;-65
2021/03/29 01:49:19;;;;;;;68.38;35.17;;;179.90;1612.80;;;;;;5094742;28;20054;-67
2021/03/29 01:51:45;;;;;;;58.63;33.95;;;179.90;1638.40;;;;;;5095012;28;20016;-66
2021/03/29 01:54:14;;;;;;;63.53;33.65;;;179.90;1638.40;;;;;;5094944;28;20097;-66
2021/03/29 01:56:40;;;;;;;64.63;32.38;;;179.90;1638.40;;;;;;5094637;28;20031;-65
2021/03/29 01:59:06;;;;;;;65.28;35.63;;;179.90;1638.40;;;;;;5095101;28;20044;-66
2021/03/29 02:01:32;;;;;;;61.50;30.60;;;179.90;1638.40;;;;;;5094552;28;20456;-66
2021/03/29 02:03:59;;;;;;;54.10;29.08;;;179.80;1638.40;;;;;;5094983;28;20045;-65
2021/03/29 02:06:26;;;;;;;54.97;29.52;;;179.80;1638.40;;;;;;5093030;28;20074;-65
2021/03/29 02:08:53;;;;;;;48.88;27.85;;;179.80;1638.40;;;;;;5074466;28;20036;-63
2021/03/29 02:11:20;;;;;;;54.85;29.27;;;179.70;1664.00;;;;;;5074072;28;20496;-67
2021/03/29 02:13:51;;;;;;;58.25;28.38;;;179.60;1664.00;;;;;;5074186;28;20032;-64
2021/03/29 02:16:18;;;;;;;50.10;28.50;;;179.60;1664.00;;;;;;5074213;28;20012;-64
2021/03/29 02:18:50;;;;;;;63.38;31.85;;;179.60;1664.00;;;;;;5074236;28;20115;-63
2021/03/29 02:21:22;;;;;;;56.10;30.27;;;179.60;1664.00;;;;;;5074133;28;20040;-65
2021/03/29 02:23:56;;;;;;;58.90;29.67;;;179.60;1664.00;;;;;;5080186;28;20492;-65
2021/03/29 02:26:22;;;;;;;;;;;179.60;1664.00;;;;;;5094896;28;20027;-65
2021/03/29 02:28:49;;;;;;;57.83;27.83;;;179.60;1689.60;;;;;;5093832;28;19904;-66
2021/03/29 02:31:16;;;;;;;69.53;36.65;;;179.60;1664.00;;;;;;5094554;28;20031;-65
2021/03/29 02:33:43;;;;;;;64.43;38.33;;;179.60;1664.00;;;;;;5093881;28;20028;-66
2021/03/29 02:36:09;;;;;;;64.32;36.35;;;179.60;1664.00;;;;;;5094462;28;20044;-66
2021/03/29 02:38:36;;;;;;;54.35;28.65;;;179.50;1664.00;;;;;;5093810;28;20207;-64
2021/03/29 02:41:03;;;;;;;53.42;27.67;;;179.50;1664.00;;;;;;5093908;28;20039;-65
2021/03/29 02:43:30;;;;;;;55.45;28.05;;;179.50;1638.40;;;;;;5093953;28;20480;-65
2021/03/29 02:46:02;;;;;;;51.50;28.42;;;179.40;1638.40;;;;;;5093908;28;20103;-67
2021/03/29 02:48:41;;;;;;;52.05;27.77;;;179.40;1664.00;;;;;;5093768;28;20024;-62
2021/03/29 02:51:12;;;;;;;45.78;23.98;;;179.40;1664.00;;;;;;5093704;28;20016;-62
2021/03/29 02:53:43;;;;;;;41.78;21.88;;;179.30;1664.00;;;;;;5093914;28;20028;-65
2021/03/29 02:56:14;;;;;;;39.28;23.08;;;179.40;1664.00;;;;;;5093260;28;20048;-65
2021/03/29 02:58:43;;;;;;;31.90;18.08;;;179.40;1664.00;;;;;;5094104;28;20039;-66
2021/03/29 03:01:11;;;;;;;27.58;16.23;;;179.30;1664.00;;;;;;5093440;28;20024;-66
2021/03/29 03:03:39;;;;;;;25.92;14.88;;;179.40;1638.40;;;;;;5075757;28;20032;-62
2021/03/29 03:06:05;;;;;;;30.08;14.48;;;179.40;1638.40;;;;;;5093270;28;20051;-64
2021/03/29 03:08:35;;;;;;;26.13;14.70;;;179.40;1638.40;;;;;;5093727;28;20099;-65
2021/03/29 03:11:01;;;;;;;52.33;29.73;;;179.40;1664.00;;;;;;5093363;28;20020;-65
2021/03/29 03:13:27;;;;;;;52.38;31.75;;;179.40;1638.40;;;;;;5093048;28;20032;-65
2021/03/29 03:15:53;;;;;;;41.33;24.08;;;179.30;1638.40;;;;;;5093526;28;20027;-66
2021/03/29 03:18:19;;;;;;;44.42;24.00;;;179.30;1638.40;;;;;;5092977;28;20088;-66
2021/03/29 03:20:45;;;;;;;39.35;22.05;;;179.30;1638.40;;;;;;5093726;28;20089;-67
2021/03/29 03:23:16;;;;;;;40.00;21.70;;;179.30;1638.40;;;;;;5092975;28;20044;-62
2021/03/29 03:25:48;;;;;;;39.17;22.42;;;179.30;1664.00;;;;;;5093475;28;20016;-65
2021/03/29 03:28:16;;;;;;;43.80;23.20;;;179.30;1638.40;;;;;;5092881;28;20024;-67
2021/03/29 03:30:45;;;;;;;38.03;20.83;;;179.20;1638.40;;;;;;5093391;28;20034;-67
2021/03/29 03:33:14;;;;;;;39.10;21.15;;;179.20;1664.00;;;;;;5093025;28;20020;-63
2021/03/29 03:35:41;;;;;;;39.60;21.40;;;154.50;1689.60;;;;;;5092999;28;20020;-66
2021/03/29 03:38:20;;;;;;;34.65;19.88;;;154.50;1689.60;;;;;;5093206;28;20119;-62
2021/03/29 03:40:49;;;;;;;47.55;24.88;;;154.50;1689.60;;;;;;5092993;28;20107;-68
2021/03/29 03:43:19;;;;;;;68.35;34.88;;;154.50;1715.20;;;;;;5093490;28;20032;-63
2021/03/29 03:46:06;;;;;;;51.58;27.92;;;154.50;1715.20;;;;;;5092681;28;20380;-65
2021/03/29 03:48:34;;;;;;;53.30;28.58;;;154.40;1766.40;;;;;;5092346;28;20032;-66
2021/03/29 03:51:01;;;;;;;69.88;36.65;;;154.20;1792.00;;;;;;5092692;28;20039;-65
2021/03/29 03:53:28;;;;;;;71.90;38.00;;;154.20;1792.00;;;;;;5092914;28;20098;-66
2021/03/29 03:55:57;;;;;;;76.00;39.83;;;154.10;1792.00;;;;;;5092185;28;20028;-67
2021/03/29 03:58:24;;;;;;;79.22;40.08;;;154.00;1817.60;;;;;;5092618;28;20035;-66
2021/03/29 04:00:51;;;;;;;79.18;40.45;;;153.90;1792.00;;;;;;5092265;28;20020;-66
2021/03/29 04:03:17;;;;;;;78.18;41.25;;;153.90;1792.00;;;;;;5092634;28;20532;-65
2021/03/29 04:05:43;;;;;;;83.28;41.40;;;153.90;1792.00;;;;;;5092716;28;20031;-62
2021/03/29 04:08:10;;;;;;;77.18;40.17;;;153.90;1792.00;;;;;;5092682;28;20027;-65
2021/03/29 04:13:27;;;;;;;79.38;41.72;;;153.90;1792.00;;;;;;5092139;28;20016;-66
2021/03/29 04:15:58;;;;;;;82.55;41.08;;;153.90;1792.00;;;;;;5092790;28;20027;-66
2021/03/29 04:18:25;;;;;;;77.65;43.10;;;154.00;1766.40;;;;;;5092172;28;20071;-62
2021/03/29 04:20:52;;;;;;;77.65;41.92;;;154.00;1792.00;;;;;;5092495;28;20417;-64
2021/03/29 04:23:19;;;;;;;83.53;44.55;;;154.10;1766.40;;;;;;5073968;28;20036;-66
2021/03/29 04:25:46;;;;;;;83.97;44.22;;;154.10;1766.40;;;;;;5092627;28;20016;-67
2021/03/29 04:28:12;;;;;;;84.43;45.47;;;154.20;1766.40;;;;;;5092337;28;20031;-66
2021/03/29 04:30:38;;;;;;;89.75;46.00;;;154.20;1766.40;;;;;;5092474;28;20016;-62
2021/03/29 04:33:04;;;;;;;84.13;46.40;;;154.30;1766.40;;;;;;5092802;28;20024;-65
2021/03/29 04:35:31;;;;;;;88.25;45.38;;;154.30;1766.40;;;;;;5092305;28;20362;-65
2021/03/29 04:37:57;;;;;;;85.85;46.03;;;154.30;1766.40;;;;;;5092291;28;20048;-64
2021/03/29 04:40:25;;;;;;;94.05;50.65;;;154.30;1766.40;;;;;;5091985;28;20028;-65
2021/03/29 04:42:52;;;;;;;93.50;49.40;;;154.30;1766.40;;;;;;5092743;28;20063;-63
2021/03/29 04:45:18;;;;;;;87.43;47.60;;;154.30;1766.40;;;;;;5092059;28;20035;-66
2021/03/29 04:47:45;;;;;;;95.38;49.10;;;154.40;1740.80;;;;;;5092297;28;20016;-66
2021/03/29 04:50:12;;;;;;;98.30;53.85;;;154.50;1740.80;;;;;;5092202;28;20021;-66
2021/03/29 04:52:38;;;;;;;96.03;51.17;;;179.20;1740.80;;;;;;5092179;28;20110;-66
2021/03/29 04:55:05;;;;;;;98.30;51.25;;;154.40;1740.80;;;;;;5092212;28;20124;-63
2021/03/29 04:57:31;;;;;;;96.70;52.25;;;154.40;1766.40;;;;;;5091756;28;20512;-66
2021/03/29 04:59:57;;;;;;;97.50;48.83;;;154.50;1766.40;;;;;;5092403;28;20024;-66
2021/03/29 05:02:23;;;;;;;91.15;49.70;;;179.20;1740.80;;;;;;5091793;28;20016;-65
2021/03/29 05:04:49;;;;;;;123.20;60.63;;;179.20;1740.80;;;;;;5092140;28;20036;-63
2021/03/29 05:07:15;;;;;;;254.27;110.82;;;179.20;1740.80;;;;;;5091547;28;20024;-66
2021/03/29 05:09:41;;;;;;;169.43;82.47;;;179.20;1766.40;;;;;;5092399;28;20028;-67
2021/03/29 05:12:15;;;;;;;117.25;61.67;;;179.20;1766.40;;;;;;5095609;28;20350;-62
2021/03/29 05:14:41;;;;;;;112.93;60.28;;;179.20;1766.40;;;;;;5095617;28;20028;-62
2021/03/29 05:17:08;;;;;;;106.93;56.28;;;179.30;1766.40;;;;;;5095424;28;20024;-66
2021/03/29 05:19:35;;;;;;;96.63;51.78;;;179.50;1740.80;;;;;;5095689;28;20048;-65
2021/03/29 05:22:02;;;;;;;105.72;54.40;;;179.50;1715.20;;;;;;5095694;28;20528;-66
2021/03/29 05:24:27;;;;;;;103.20;56.42;;;179.60;1715.20;;;;;;5095206;28;20024;-67
2021/03/29 05:26:54;;;;;;;108.78;57.42;;;179.60;1715.20;;;;;;5095469;28;20023;-66
2021/03/29 05:29:20;;;;;;;109.05;58.22;;;179.70;1715.20;;;;;;5076835;28;20024;-66
2021/03/29 05:31:46;;;;;;;109.78;56.60;;;179.80;1715.20;;;;;;5095571;28;20103;-65
2021/03/29 05:34:14;;;;;;;113.03;62.35;;;179.90;1715.20;;;;;;5095194;28;20112;-66
2021/03/29 05:36:41;;;;;;;112.85;59.90;;;179.70;1715.20;;;;;;5095259;28;20082;-66
2021/03/29 05:39:11;;;;;;;101.78;57.30;;;180.00;1740.80;;;;;;5095047;28;20480;-65
2021/03/29 05:41:40;;;;;;;102.00;56.95;;;204.80;1715.20;;;;;;5095120;28;20024;-64
2021/03/29 05:44:08;;;;;;;104.13;59.10;;;204.80;1689.60;;;;;;5077363;28;20481;-65
2021/03/29 05:46:42;;;;;;;108.18;62.17;;;204.90;1689.60;;;;;;5094698;28;20487;-66
2021/03/29 05:49:09;;;;;;;118.57;61.78;;;205.00;1664.00;;;;;;5095007;28;20050;-66
2021/03/29 05:51:38;;;;;;;121.50;66.38;;;205.20;1689.60;;;;;;5094870;28;20077;-66
2021/03/29 05:54:06;;;;;;;107.78;62.80;;;205.20;1664.00;;;;;;5095316;28;20549;-67
2021/03/29 05:56:34;;;;;;;114.00;64.00;;;205.40;1638.40;;;;;;5094534;28;20476;-66
2021/03/29 05:59:21;;;;;;;112.30;63.72;;;205.50;1612.80;;;;;;5094695;28;20118;-67
2021/03/29 06:01:49;;;;;;;110.45;60.95;;;205.60;1612.80;;;;;;5094848;28;20050;-67
2021/03/29 06:04:36;;;;;;;104.25;59.35;;;230.40;1612.80;;;;;;5095103;28;20028;-66
2021/03/29 06:07:28;;;;;;;103.90;58.65;;;230.60;1587.20;;;;;;5094459;28;20054;-67
2021/03/29 06:10:05;;;;;;;91.45;50.67;;;230.70;1587.20;;;;;;5094671;28;20016;-67
2021/03/29 06:12:43;;;;;;;115.57;66.50;;;230.90;1536.00;;;;;;5094503;28;20012;-68
2021/03/29 06:15:10;;;;;;;127.05;72.85;;;231.00;1536.00;;;;;;5094771;28;20038;-65
2021/03/29 06:17:36;;;;;;;96.75;57.28;;;231.10;1536.00;;;;;;5094715;28;20085;-64
2021/03/29 06:20:05;;;;;;;74.22;41.05;;;231.10;1510.40;;;;;;5094094;28;20039;-67
2021/03/29 06:22:35;;;;;;;78.05;46.13;;;231.20;1484.80;;;;;;5091242;28;20480;-66
2021/03/29 06:25:18;;;;;;;78.68;44.08;;;256.00;1510.40;;;;;;5093911;28;20039;-65
2021/03/29 06:27:46;;;;;;;63.65;36.28;;;256.20;1484.80;;;;;;5094396;28;20107;-67
2021/03/29 06:30:20;;;;;;;48.63;26.50;;;256.40;1459.20;;;;;;5091763;28;20426;-71
2021/03/29 06:33:09;;;;;;;36.63;21.60;;;256.60;1408.00;;;;;;5093796;28;20063;-68
2021/03/29 06:35:41;;;;;;;39.05;21.00;;;256.80;1382.40;;;;;;5074007;28;20020;-67
2021/03/29 06:38:12;;;;;;;44.42;24.80;;;281.70;1382.40;;;;;;5088477;28;20036;-67
2021/03/29 06:40:40;;;;;;;45.55;26.38;;;333.60;1254.40;;;;;;5093928;28;20027;-69
2021/03/29 06:43:35;;;;;;;45.38;22.58;;;461.00;972.80;;;;;;5092367;28;20028;-65
2021/03/29 06:46:04;;;;;;;41.20;24.38;;;563.20;742.40;;;;;;5056184;28;20546;-70
2021/03/29 06:48:34;;;;;;;34.08;21.15;;;614.80;665.60;;;;;;5093121;28;20024;-68
2021/03/29 06:51:09;;;;;;;27.40;17.10;;;666.10;614.40;;;;;;5075687;28;20085;-67
2021/03/29 06:53:36;;;;;;;19.48;12.50;;;717.10;537.60;;;;;;5085926;28;20389;-69
2021/03/29 06:56:19;;;;;;;18.20;11.00;;;742.80;486.40;;;;;;5092141;28;20020;-68
2021/03/29 06:58:45;;;;;;;17.00;11.48;;;768.50;435.20;;;;;;5091844;28;20479;-68
2021/03/29 07:01:19;;;;;;;18.42;12.50;;;794.10;435.20;;;;;;5092766;28;20074;-69
2021/03/29 07:03:47;;;;;;;20.25;12.93;;;819.90;384.00;;;;;;5074083;28;20024;-69
2021/03/29 07:06:18;;;;;;;17.35;10.95;;;845.10;384.00;;;;;;5092598;28;20020;-65
2021/03/29 07:08:47;;;;;;;20.67;12.52;;;870.40;358.40;;;;;;5091918;28;20027;-69
2021/03/29 07:11:19;;;;;;;20.05;12.73;;;871.30;332.80;;;;;;5093711;28;20028;-66
2021/03/29 07:13:46;;;;;;;20.85;13.35;;;896.70;332.80;;;;;;5095839;28;20024;-65
2021/03/29 07:16:13;;;;;;;22.52;13.57;;;921.70;307.20;;;;;;5104099;28;20069;-68
2021/03/29 07:18:40;;;;;;;24.10;15.40;;;921.80;307.20;;;;;;5098775;28;20036;-69
2021/03/29 07:21:09;;;;;;;27.55;16.38;;;922.00;307.20;;;;;;5093185;28;20024;-68
2021/03/29 07:23:36;;;;;;;29.83;17.25;;;921.60;332.80;;;;;;5093629;28;20028;-69
2021/03/29 07:26:17;;;;;;;24.75;16.40;;;870.60;384.00;;;;;;5093586;28;20074;-68
2021/03/29 07:28:43;;;;;;;26.58;16.10;;;768.70;435.20;;;;;;5093540;28;20362;-68
2021/03/29 07:31:09;;;;;;;20.05;13.68;;;716.80;512.00;;;;;;5092925;28;20016;-69
2021/03/29 07:33:53;;;;;;;15.02;9.98;;;665.60;563.20;;;;;;5092601;28;20020;-70
2021/03/29 07:36:37;;;;;;;;;;;614.90;614.40;;;;;;5093203;28;20023;-73
2021/03/29 07:39:03;;;;;;;18.77;11.30;;;589.30;665.60;;;;;;5086644;28;19920;-73
2021/03/29 07:41:28;;;;;;;28.98;20.00;;;563.80;716.80;;;;;;5084153;28;20434;-73
2021/03/29 07:44:13;;;;;;;31.35;20.35;;;538.40;716.80;;;;;;5073215;28;20532;-72
2021/03/29 07:46:42;;;;;;;27.58;17.25;;;537.90;691.20;;;;;;5072659;28;20021;-74
2021/03/29 07:49:56;;;;;;;21.10;11.60;;;512.80;691.20;;;;;;5055096;28;20052;-69
2021/03/29 07:52:34;;;;;;;20.70;9.93;;;512.60;716.80;;;;;;5002613;28;20038;-70
2021/03/29 07:55:03;;;;;;;14.35;8.25;;;512.20;742.40;;;;;;4992900;28;20037;-70
2021/03/29 07:57:59;;;;;;;15.13;7.43;;;512.00;742.40;;;;;;5004377;28;20042;-71
2021/03/29 08:00:25;;;;;;;13.48;8.27;;;487.00;819.20;;;;;;5009507;28;20029;-66
2021/03/29 08:02:54;;;;;;;18.08;6.78;;;487.00;819.20;;;;;;5009259;28;20030;-64
2021/03/29 08:05:40;;;;;;;17.85;6.18;;;487.10;819.20;;;;;;5009895;28;20030;-73
2021/03/29 08:11:13;;;;;;;12.32;5.78;;;486.80;793.60;;;;;;5009649;28;20506;-67
2021/03/29 08:13:50;;;;;;;13.15;6.20;;;486.70;819.20;;;;;;5009310;28;20038;-66
2021/03/29 08:16:22;;;;;;;15.65;5.85;;;486.60;819.20;;;;;;5010775;28;20088;-69
2021/03/29 08:19:12;;;;;;;10.13;5.07;;;486.50;819.20;;;;;;5010520;28;20404;-70
2021/03/29 08:21:46;;;;;;;13.85;7.90;;;486.40;819.20;;;;;;5016857;28;20038;-72
2021/03/29 08:24:27;;;;;;;28.80;16.88;;;461.70;793.60;;;;;;5030264;28;20026;-70
2021/03/29 08:26:56;;;;;;;12.38;5.30;;;461.60;844.80;;;;;;5030415;28;20033;-71
2021/03/29 08:29:33;;;;;;;14.05;6.05;;;461.60;819.20;;;;;;5070686;28;20024;-69
2021/03/29 08:32:10;;;;;;;10.70;5.13;;;461.40;844.80;;;;;;5092454;28;20377;-71
2021/03/29 08:34:59;;;;;;;14.20;5.97;;;461.30;844.80;;;;;;5089019;28;20050;-72
2021/03/29 08:37:34;;;;;;;16.27;5.65;;;461.20;896.00;;;;;;5096822;28;20032;-66
2021/03/29 08:40:04;;;;;;;17.52;5.72;;;461.20;870.40;;;;;;5098634;28;20028;-68
2021/03/29 08:42:32;;;;;;;9.40;4.47;;;461.20;870.40;;;;;;5112363;28;20051;-64
2021/03/29 08:45:00;;;;;;;11.43;4.97;;;461.00;844.80;;;;;;5094410;28;20024;-66
2021/03/29 08:47:27;;;;;;;9.60;5.70;;;460.90;870.40;;;;;;5096258;28;20419;-69
2021/03/29 08:49:55;;;;;;;9.95;4.70;;;436.10;870.40;;;;;;5096799;28;20024;-61
2021/03/29 08:52:22;;;;;;;9.15;4.78;;;436.10;896.00;;;;;;5095786;28;20043;-64
2021/03/29 08:54:54;;;;;;;11.85;5.20;;;435.90;870.40;;;;;;5095175;28;20058;-69
2021/03/29 08:57:32;;;;;;;18.33;15.03;;;435.90;896.00;;;;;;5096123;28;20020;-71
2021/03/29 09:00:00;;;;;;;16.23;10.27;;;435.90;870.40;;;;;;5096430;28;20548;-71
2021/03/29 09:02:27;;;;;;;26.20;16.83;;;435.90;844.80;;;;;;5096311;28;20467;-69
2021/03/29 09:04:58;;;;;;;11.68;4.80;;;435.90;844.80;;;;;;5096056;28;20065;-69
2021/03/29 09:07:33;;;;;;;7.85;4.45;;;436.00;870.40;;;;;;5096498;28;20023;-71
2021/03/29 09:10:00;;;;;;;11.25;4.60;;;435.80;896.00;;;;;;5094672;28;20159;-70
2021/03/29 09:12:31;;;;;;;10.15;4.43;;;435.90;870.40;;;;;;5096010;28;20051;-70
2021/03/29 09:14:57;;;;;;;9.05;4.65;;;435.90;870.40;;;;;;5095806;28;20417;-63
2021/03/29 09:17:31;;;;;;;10.48;4.72;;;435.90;896.00;;;;;;5096176;28;20024;-70
2021/03/29 09:19:58;;;;;;;10.27;4.60;;;435.90;896.00;;;;;;5095629;28;20024;-61
2021/03/29 09:22:29;;;;;;;11.88;5.28;;;436.00;896.00;;;;;;5091251;28;20044;-61
2021/03/29 09:24:55;;;;;;;14.88;7.20;;;435.90;844.80;;;;;;5084321;28;20056;-64
2021/03/29 09:27:28;;;;;;;13.05;7.70;;;435.90;844.80;;;;;;5075584;28;20066;-64
2021/03/29 09:29:54;;;;;;;;;;;435.90;896.00;;;;;;5058009;28;20389;-67
2021/03/29 09:32:22;;;;;;;8.68;4.43;;;436.00;896.00;;;;;;5075009;28;19904;-63
2021/03/29 09:34:49;;;;;;;15.38;5.18;;;436.00;844.80;;;;;;5086717;28;20023;-66
2021/03/29 09:37:20;;;;;;;8.82;5.07;;;436.10;844.80;;;;;;5102252;28;20103;-72
2021/03/29 09:39:47;;;;;;;14.07;5.50;;;436.00;844.80;;;;;;5101721;28;20031;-71
2021/03/29 09:42:17;;;;;;;18.27;4.85;;;460.80;921.60;;;;;;5102261;28;20057;-65
2021/03/29 09:44:43;;;;;;;14.65;4.38;;;436.00;896.00;;;;;;5104410;28;20027;-70
2021/03/29 09:47:09;;;;;;;15.18;4.63;;;436.10;896.00;;;;;;5102502;28;20111;-71
2021/03/29 09:49:51;;;;;;;14.52;4.55;;;460.80;921.60;;;;;;5100910;28;20056;-71
2021/03/29 09:52:17;;;;;;;20.25;4.68;;;436.00;896.00;;;;;;5100520;28;20048;-71
2021/03/29 09:54:49;;;;;;;7.85;4.53;;;436.00;896.00;;;;;;5095320;28;20582;-67
2021/03/29 09:57:21;;;;;;;10.02;4.30;;;436.00;896.00;;;;;;5094070;28;20111;-71
2021/03/29 09:59:49;;;;;;;8.15;3.80;;;436.00;844.80;;;;;;5094972;28;20032;-72
2021/03/29 10:02:24;;;;;;;7.72;4.72;;;436.00;844.80;;;;;;5095191;28;20028;-71
2021/03/29 10:05:00;;;;;;;12.35;5.35;;;436.10;896.00;;;;;;5087583;28;20016;-71
2021/03/29 10:07:26;;;;;;;13.63;5.72;;;460.90;921.60;;;;;;5109113;28;20023;-72
2021/03/29 10:09:59;;;;;;;14.85;7.93;;;460.90;921.60;;;;;;5114100;28;20440;-70
2021/03/29 10:12:29;;;;;;;10.90;4.38;;;461.00;921.60;;;;;;5101723;28;20052;-73
2021/03/29 10:15:09;;;;;;;10.75;4.95;;;461.00;921.60;;;;;;5093063;28;20036;-72
2021/03/29 10:17:36;;;;;;;7.18;3.80;;;461.20;870.40;;;;;;5092820;28;20024;-72
2021/03/29 10:20:16;;;;;;;6.57;4.00;;;461.20;819.20;;;;;;5090466;28;20063;-73
2021/03/29 10:22:42;;;;;;;6.70;3.50;;;461.00;844.80;;;;;;5085127;28;20062;-72
2021/03/29 10:25:18;;;;;;;9.57;4.40;;;461.00;844.80;;;;;;5088656;28;20024;-67
2021/03/29 10:27:47;;;;;;;7.70;4.18;;;461.20;896.00;;;;;;5091820;28;20446;-70
2021/03/29 10:30:21;;;;;;;10.73;4.13;;;461.30;921.60;;;;;;5090558;28;20024;-70
2021/03/29 10:32:48;;;;;;;12.13;5.63;;;461.50;870.40;;;;;;5095799;28;20048;-67
2021/03/29 10:35:14;;;;;;;7.95;4.03;;;461.60;896.00;;;;;;5088309;28;20059;-70
2021/03/29 10:37:40;;;;;;;6.70;4.05;;;486.60;870.40;;;;;;5089378;28;20032;-72
2021/03/29 10:40:07;;;;;;;21.38;4.40;;;486.50;844.80;;;;;;5092192;28;20076;-68
2021/03/29 10:42:35;;;;;;;8.30;3.75;;;486.50;844.80;;;;;;5099189;28;20033;-70
2021/03/29 10:45:05;;;;;;;9.73;4.13;;;486.40;819.20;;;;;;5093430;28;20040;-72
2021/03/29 10:47:30;;;;;;;9.55;4.15;;;461.70;844.80;;;;;;5094628;28;20083;-69
2021/03/29 10:49:56;;;;;;;7.22;3.90;;;486.40;844.80;;;;;;5101410;28;20027;-72
2021/03/29 10:52:22;;;;;;;17.85;12.77;;;461.70;844.80;;;;;;5101534;28;20051;-70
2021/03/29 10:54:50;;;;;;;66.72;59.70;;;461.70;844.80;;;;;;5101464;28;20016;-66
2021/03/29 10:57:16;;;;;;;59.17;40.00;;;461.70;870.40;;;;;;5093974;28;20023;-67
2021/03/29 10:59:42;;;;;;;6.18;3.20;;;486.40;844.80;;;;;;5096392;28;20043;-70
2021/03/29 11:02:09;;;;;;;5.63;3.15;;;461.40;819.20;;;;;;5100285;28;20023;-68
2021/03/29 11:04:35;;;;;;;10.45;3.58;;;461.60;844.80;;;;;;5100452;28;20020;-72
2021/03/29 11:07:02;;;;;;;9.50;3.75;;;461.60;819.20;;;;;;5091777;28;20028;-63
2021/03/29 11:09:28;;;;;;;9.02;3.90;;;461.70;844.80;;;;;;5102023;28;20024;-65
2021/03/29 11:11:55;;;;;;;9.27;3.55;;;486.40;870.40;;;;;;5095442;28;20043;-72
2021/03/29 11:14:22;;;;;;;54.70;23.23;;;486.40;870.40;;;;;;5094100;28;20027;-72
2021/03/29 11:16:50;;;;;;;26.58;7.47;;;486.50;844.80;;;;;;5100971;28;20024;-70
2021/03/29 11:19:17;;;;;;;12.73;3.67;;;486.50;844.80;;;;;;5092831;28;20028;-72
2021/03/29 11:21:44;;;;;;;8.32;3.63;;;486.50;819.20;;;;;;5092362;28;20068;-72
2021/03/29 11:24:11;;;;;;;187.70;15.40;;;486.50;819.20;;;;;;5085338;28;20480;-71
2021/03/29 11:26:37;;;;;;;13.35;3.55;;;486.60;793.60;;;;;;5088204;28;20473;-63
2021/03/29 11:29:03;;;;;;;27.63;3.92;;;486.50;819.20;;;;;;5095493;28;20032;-71
2021/03/29 11:31:29;;;;;;;11.15;4.07;;;486.60;819.20;;;;;;5092831;28;20072;-64
2021/03/29 11:33:55;;;;;;;8.68;3.13;;;486.60;793.60;;;;;;5096798;28;20066;-71
2021/03/29 11:36:21;;;;;;;51.88;37.05;;;486.80;819.20;;;;;;5095330;28;20092;-69
2021/03/29 11:38:48;;;;;;;8.48;3.53;;;486.80;819.20;;;;;;5090091;28;20488;-65
2021/03/29 11:41:15;;;;;;;9.80;3.38;;;486.70;819.20;;;;;;5078901;28;20110;-66
2021/03/29 11:43:41;;;;;;;6.88;3.70;;;486.80;819.20;;;;;;5097413;28;20376;-70
2021/03/29 11:46:07;;;;;;;7.82;3.83;;;486.80;844.80;;;;;;5098764;28;20073;-71
2021/03/29 11:48:33;;;;;;;11.05;4.10;;;486.80;819.20;;;;;;5097815;28;20024;-70
2021/03/29 11:50:59;;;;;;;5.45;3.47;;;486.80;819.20;;;;;;5101809;28;20027;-70
2021/03/29 11:53:25;;;;;;;8.00;3.60;;;486.70;793.60;;;;;;5096233;28;20027;-65
2021/03/29 11:55:51;;;;;;;7.95;3.90;;;486.80;870.40;;;;;;5080522;28;20020;-71
2021/03/29 11:58:17;;;;;;;9.52;3.95;;;486.80;870.40;;;;;;5096841;28;20074;-68
2021/03/29 12:03:58;;;;;;;17.77;9.50;;;486.60;793.60;;;;;;5094951;28;20710;-71
2021/03/29 12:06:08;;;;;;;11.03;3.73;;;486.50;844.80;;;;;;5077415;28;20043;-69
2021/03/29 12:08:55;;;;;;;14.93;4.15;;;486.60;844.80;;;;;;5092270;28;20012;-71
2021/03/29 12:14:08;;;;;;;6.28;3.58;;;486.70;819.20;;;;;;5089413;28;20115;-73
2021/03/29 12:16:40;;;;;;;11.07;4.20;;;486.70;819.20;;;;;;5101812;28;20043;-70
2021/03/29 12:19:05;;;;;;;18.60;6.22;;;486.80;793.60;;;;;;5092848;28;20069;-72
2021/03/29 12:21:37;;;;;;;6.68;3.25;;;486.80;819.20;;;;;;5097972;28;20106;-72
2021/03/29 12:24:26;;;;;;;8.70;2.88;;;486.80;819.20;;;;;;5104149;28;20028;-65
2021/03/29 12:26:52;;;;;;;13.35;5.80;;;486.80;793.60;;;;;;5093891;28;20361;-65
2021/03/29 12:29:37;;;;;;;8.52;3.25;;;486.80;844.80;;;;;;5089134;28;20031;-66